createdAt,value
2019-05-23T00:01:53.722Z,80.10
2019-05-23T00:04:29.367Z,80.20
2019-05-23T00:07:01.673Z,79.80
2019-05-23T00:09:32.306Z,80.20
2019-05-23T00:12:21.451Z,80.90
2019-05-23T00:14:56.089Z,80.60
2019-05-23T00:17:27.401Z,80.40
2019-05-23T00:19:59.081Z,81.50
2019-05-23T00:22:29.437Z,81.80
2019-05-23T00:25:00.855Z,81.80
2019-05-23T00:27:31.957Z,81.80
2019-05-23T00:30:04.006Z,81.80
2019-05-23T00:32:36.437Z,81.80
2019-05-23T00:35:09.214Z,81.80
2019-05-23T00:37:43.190Z,81.90
2019-05-23T00:40:15.613Z,81.80
2019-05-23T00:42:46.833Z,81.40
2019-05-23T00:45:17.744Z,81.20
2019-05-23T00:47:48.525Z,81.70
2019-05-23T00:50:21.158Z,81.70
2019-05-23T00:52:53.196Z,81.70
2019-05-23T00:55:24.334Z,81.70
2019-05-23T00:57:56.087Z,81.70
2019-05-23T01:00:27.598Z,82.40
2019-05-23T01:02:58.703Z,82.40
2019-05-23T01:05:30.025Z,82.80
2019-05-23T01:08:01.940Z,83.50
2019-05-23T01:10:32.718Z,83.50
2019-05-23T01:13:04.173Z,84.00
2019-05-23T01:15:34.875Z,83.80
2019-05-23T01:18:05.556Z,83.30
2019-05-23T01:20:55.935Z,83.80
2019-05-23T01:23:28.488Z,83.50
2019-05-23T01:25:59.210Z,83.60
2019-05-23T01:28:29.991Z,83.30
2019-05-23T01:31:04.528Z,83.50
2019-05-23T01:33:35.361Z,83.10
2019-05-23T01:36:06.057Z,83.10
2019-05-23T01:38:38.208Z,83.10
2019-05-23T01:41:10.245Z,83.60
2019-05-23T01:43:41.446Z,83.00
2019-05-23T01:46:12.745Z,82.60
2019-05-23T01:48:43.163Z,83.10
2019-05-23T01:51:14.104Z,83.80
2019-05-23T01:53:58.004Z,83.10
2019-05-23T01:56:28.785Z,82.70
2019-05-23T01:58:59.193Z,83.50
2019-05-23T02:01:29.539Z,84.00
2019-05-23T02:04:00.229Z,83.80
2019-05-23T02:06:31.094Z,83.10
2019-05-23T02:09:02.258Z,83.70
2019-05-23T02:11:52.835Z,83.60
2019-05-23T02:14:23.393Z,83.20
2019-05-23T02:16:56.276Z,83.00
2019-05-23T02:19:28.180Z,81.50
2019-05-23T02:21:58.824Z,81.50
2019-05-23T02:24:30.200Z,81.00
2019-05-23T02:27:01.557Z,81.50
2019-05-23T02:29:32.812Z,81.60
2019-05-23T02:32:03.615Z,81.90
2019-05-23T02:34:34.923Z,82.10
2019-05-23T02:37:07.364Z,81.40
2019-05-23T02:39:51.660Z,82.80
2019-05-23T02:42:41.514Z,83.10
2019-05-23T02:45:14.279Z,82.50
2019-05-23T02:47:50.766Z,82.40
2019-05-23T02:50:51.357Z,82.90
2019-05-23T02:53:23.721Z,84.40
2019-05-23T02:55:57.285Z,83.70
2019-05-23T02:58:37.098Z,83.60
2019-05-23T03:01:39.920Z,83.30
2019-05-23T03:07:09.420Z,83.50
2019-05-23T03:09:41.367Z,83.40
2019-05-23T03:12:13.553Z,84.20
2019-05-23T03:14:45.852Z,83.40
2019-05-23T03:17:18.729Z,83.90
2019-05-23T03:19:58.212Z,84.10
2019-05-23T03:22:32.003Z,84.00
2019-05-23T03:25:10.502Z,84.50
2019-05-23T03:27:44.930Z,84.70
2019-05-23T03:30:17.320Z,84.40
2019-05-23T03:35:43.487Z,84.10
2019-05-23T03:38:14.631Z,84.50
2019-05-23T03:40:46.072Z,84.50
2019-05-23T03:43:16.960Z,84.80
2019-05-23T03:46:04.611Z,85.20
2019-05-23T03:48:36.609Z,85.20
2019-05-23T03:51:09.769Z,85.20
2019-05-23T03:53:41.707Z,85.30
2019-05-23T03:56:12.348Z,85.60
2019-05-23T03:58:42.733Z,85.60
2019-05-23T04:01:14.827Z,85.90
2019-05-23T04:03:45.566Z,85.40
2019-05-23T04:06:16.522Z,86.00
2019-05-23T04:08:47.412Z,86.20
2019-05-23T04:11:18.937Z,86.40
2019-05-23T04:13:49.877Z,85.50
2019-05-23T04:16:20.574Z,85.20
2019-05-23T04:18:51.452Z,85.40
2019-05-23T04:21:25.164Z,86.40
2019-05-23T04:23:55.886Z,85.50
2019-05-23T04:26:26.868Z,84.00
2019-05-23T04:28:58.078Z,84.30
2019-05-23T04:31:28.658Z,84.20
2019-05-23T04:33:59.036Z,84.20
2019-05-23T04:36:29.463Z,84.70
2019-05-23T04:39:00.277Z,85.40
2019-05-23T04:41:30.890Z,86.10
2019-05-23T04:44:01.239Z,85.20
2019-05-23T04:46:32.056Z,85.20
2019-05-23T04:49:02.783Z,85.70
2019-05-23T04:51:33.397Z,86.70
2019-05-23T04:54:04.282Z,87.20
2019-05-23T04:56:35.256Z,88.40
2019-05-23T04:59:06.184Z,89.90
2019-05-23T05:01:37.532Z,89.20
2019-05-23T05:04:08.223Z,89.80
2019-05-23T05:06:39.187Z,89.80
2019-05-23T05:09:11.495Z,89.30
2019-05-23T05:11:41.864Z,89.90
2019-05-23T05:14:12.964Z,90.20
2019-05-23T05:16:43.604Z,90.70
2019-05-23T05:19:14.275Z,90.60
2019-05-23T05:21:44.611Z,90.70
2019-05-23T05:24:15.596Z,90.70
2019-05-23T05:26:46.056Z,90.90
2019-05-23T05:29:16.795Z,90.80
2019-05-23T05:31:47.191Z,90.40
2019-05-23T05:34:17.607Z,90.50
2019-05-23T05:36:48.528Z,89.30
2019-05-23T05:39:19.455Z,88.30
2019-05-23T05:41:50.189Z,88.10
2019-05-23T05:44:21.291Z,87.00
2019-05-23T05:46:51.863Z,87.00
2019-05-23T05:49:22.424Z,86.20
2019-05-23T05:51:52.794Z,85.20
2019-05-23T05:54:24.200Z,84.00
2019-05-23T05:56:54.562Z,83.10
2019-05-23T05:59:24.981Z,82.50
2019-05-23T06:01:56.350Z,82.00
2019-05-23T06:04:26.868Z,81.10
2019-05-23T06:07:11.336Z,80.50
2019-05-23T06:09:42.452Z,78.50
2019-05-23T06:12:13.959Z,76.60
2019-05-23T06:14:46.631Z,78.10
2019-05-23T06:17:18.156Z,77.50
2019-05-23T06:19:49.027Z,76.70
2019-05-23T06:22:20.116Z,76.20
2019-05-23T06:24:54.776Z,75.40
2019-05-23T06:27:42.606Z,76.60
2019-05-23T06:30:15.489Z,74.40
2019-05-23T06:32:46.402Z,74.50
2019-05-23T06:35:16.741Z,73.30
2019-05-23T06:37:47.685Z,69.50
2019-05-23T06:40:19.142Z,71.10
2019-05-23T06:42:50.831Z,70.80
2019-05-23T06:45:21.844Z,68.30
2019-05-23T06:47:52.473Z,67.70
2019-05-23T06:50:22.871Z,68.30
2019-05-23T06:52:53.653Z,64.50
2019-05-23T06:55:24.309Z,61.70
2019-05-23T06:57:55.273Z,61.80
2019-05-23T07:00:29.038Z,63.50
2019-05-23T07:02:59.408Z,63.60
2019-05-23T07:05:34.549Z,61.70
2019-05-23T07:08:06.103Z,61.80
2019-05-23T07:10:36.772Z,62.40
2019-05-23T07:13:07.136Z,60.80
2019-05-23T07:15:37.583Z,59.50
2019-05-23T07:18:08.096Z,57.40
2019-05-23T07:20:38.535Z,57.50
2019-05-23T07:23:11.547Z,58.10
2019-05-23T07:25:41.932Z,59.00
2019-05-23T07:28:12.716Z,58.00
2019-05-23T07:30:43.095Z,54.70
2019-05-23T07:33:13.711Z,54.10
2019-05-23T07:35:44.111Z,53.30
2019-05-23T07:38:14.998Z,53.80
2019-05-23T07:40:46.584Z,53.60
2019-05-23T07:43:17.280Z,54.20
2019-05-23T07:45:49.353Z,50.80
2019-05-23T07:48:20.093Z,49.20
2019-05-23T07:50:50.486Z,49.00
2019-05-23T07:53:22.565Z,46.40
2019-05-23T07:55:54.612Z,48.50
2019-05-23T07:58:25.522Z,47.30
2019-05-23T08:00:58.085Z,48.10
2019-05-23T08:03:28.999Z,47.10
2019-05-23T08:05:59.523Z,47.30
2019-05-23T08:08:30.499Z,47.20
2019-05-23T08:11:01.237Z,45.30
2019-05-23T08:13:32.673Z,45.30
2019-05-23T08:16:04.287Z,46.50
2019-05-23T08:18:35.169Z,44.30
2019-05-23T08:21:05.495Z,44.10
2019-05-23T08:23:35.885Z,44.40
2019-05-23T08:26:06.496Z,43.60
2019-05-23T08:28:36.893Z,42.20
2019-05-23T08:31:07.264Z,43.30
2019-05-23T08:33:49.649Z,45.40
2019-05-23T08:36:20.459Z,46.10
2019-05-23T08:38:51.170Z,44.00
2019-05-23T08:41:22.040Z,42.80
2019-05-23T08:43:53.328Z,40.20
2019-05-23T08:46:23.859Z,40.80
2019-05-23T08:48:54.750Z,41.50
2019-05-23T08:51:25.382Z,40.40
2019-05-23T08:53:55.725Z,40.10
2019-05-23T08:56:27.678Z,40.40
2019-05-23T08:58:58.778Z,39.80
2019-05-23T09:01:29.509Z,39.10
2019-05-23T09:04:00.477Z,40.10
2019-05-23T09:06:30.860Z,40.40
2019-05-23T09:09:02.555Z,41.50
2019-05-23T09:11:33.150Z,38.80
2019-05-23T09:14:03.859Z,39.20
2019-05-23T09:16:34.868Z,38.20
2019-05-23T09:19:05.268Z,38.00
2019-05-23T09:21:36.418Z,37.10
2019-05-23T09:24:06.930Z,35.70
2019-05-23T09:26:37.588Z,36.70
2019-05-23T09:29:08.317Z,36.70
2019-05-23T09:31:39.292Z,33.90
2019-05-23T09:34:10.000Z,34.70
2019-05-23T09:36:40.417Z,36.20
2019-05-23T09:39:12.402Z,35.70
2019-05-23T09:41:42.887Z,33.80
2019-05-23T09:44:13.767Z,33.20
2019-05-23T09:46:44.776Z,33.70
2019-05-23T09:49:15.136Z,32.50
2019-05-23T09:51:46.997Z,30.10
2019-05-23T09:54:17.734Z,32.00
2019-05-23T09:56:48.118Z,31.80
2019-05-23T09:59:18.526Z,34.10
2019-05-23T10:01:49.523Z,32.80
2019-05-23T10:04:19.918Z,31.50
2019-05-23T10:06:50.253Z,30.50
2019-05-23T10:09:20.615Z,30.00
2019-05-23T10:11:51.387Z,30.00
2019-05-23T10:14:26.754Z,29.90
2019-05-23T10:16:57.143Z,30.10
2019-05-23T10:19:27.825Z,28.80
2019-05-23T10:21:58.285Z,29.00
2019-05-23T10:24:28.976Z,28.50
2019-05-23T10:26:59.428Z,28.80
2019-05-23T10:29:29.768Z,27.80
2019-05-23T10:32:00.486Z,28.60
2019-05-23T10:34:30.860Z,27.30
2019-05-23T10:37:01.239Z,27.00
2019-05-23T10:39:34.750Z,28.70
2019-05-23T10:42:05.470Z,28.00
2019-05-23T10:44:35.980Z,30.00
2019-05-23T10:47:06.333Z,27.60
2019-05-23T10:49:37.074Z,26.80
2019-05-23T10:52:07.834Z,27.50
2019-05-23T10:54:38.757Z,26.70
2019-05-23T10:57:09.187Z,26.50
2019-05-23T10:59:39.879Z,26.10
2019-05-23T11:02:10.616Z,25.80
2019-05-23T11:04:40.983Z,24.70
2019-05-23T11:07:12.121Z,24.20
2019-05-23T11:09:43.051Z,25.20
2019-05-23T11:12:14.807Z,25.50
2019-05-23T11:14:45.145Z,23.50
2019-05-23T11:17:15.480Z,24.20
2019-05-23T11:19:45.909Z,24.10
2019-05-23T11:22:16.657Z,25.80
2019-05-23T11:24:47.084Z,24.90
2019-05-23T11:27:18.034Z,26.90
2019-05-23T11:29:48.785Z,25.80
2019-05-23T11:32:20.452Z,25.40
2019-05-23T11:34:51.183Z,24.50
2019-05-23T11:37:22.144Z,24.60
2019-05-23T11:39:52.550Z,25.10
2019-05-23T11:42:23.243Z,26.10
2019-05-23T11:44:53.978Z,25.20
2019-05-23T11:47:25.128Z,27.50
2019-05-23T11:49:55.480Z,25.90
2019-05-23T11:52:27.129Z,25.90
2019-05-23T11:54:57.465Z,26.00
2019-05-23T11:57:28.232Z,26.20
2019-05-23T11:59:58.647Z,25.70
2019-05-23T12:02:30.991Z,24.60
2019-05-23T12:05:03.339Z,23.50
2019-05-23T12:07:34.338Z,23.90
2019-05-23T12:10:05.633Z,22.40
2019-05-23T12:12:36.470Z,24.80
2019-05-23T12:15:09.716Z,24.10
2019-05-23T12:17:59.903Z,25.50
2019-05-23T12:20:30.410Z,26.40
2019-05-23T12:23:00.891Z,25.40
2019-05-23T12:25:31.936Z,25.10
2019-05-23T12:28:03.000Z,24.70
2019-05-23T12:30:33.347Z,24.30
2019-05-23T12:33:04.639Z,24.80
2019-05-23T12:35:34.986Z,24.40
2019-05-23T12:38:05.795Z,25.30
2019-05-23T12:40:36.425Z,24.60
2019-05-23T12:43:06.883Z,25.40
2019-05-23T12:45:37.293Z,25.20
2019-05-23T12:48:25.500Z,26.00
2019-05-23T12:50:57.501Z,25.80
2019-05-23T12:53:28.016Z,25.90
2019-05-23T12:55:58.764Z,26.50
2019-05-23T12:58:30.276Z,27.80
2019-05-23T13:01:02.595Z,26.20
2019-05-23T13:03:33.347Z,26.30
2019-05-23T13:06:03.893Z,27.20
2019-05-23T13:08:34.227Z,26.20
2019-05-23T13:11:04.818Z,27.30
2019-05-23T13:13:35.219Z,26.50
2019-05-23T13:16:05.613Z,26.20
2019-05-23T13:18:35.997Z,26.20
2019-05-23T13:21:06.456Z,26.30
2019-05-23T13:23:37.160Z,26.50
2019-05-23T13:26:07.760Z,25.90
2019-05-23T13:28:38.109Z,26.00
2019-05-23T13:31:08.486Z,25.80
2019-05-23T13:33:38.838Z,26.30
2019-05-23T13:36:09.768Z,25.50
2019-05-23T13:38:40.504Z,26.80
2019-05-23T13:41:11.220Z,26.50
2019-05-23T13:43:42.089Z,25.80
2019-05-23T13:46:12.447Z,25.20
2019-05-23T13:48:43.215Z,24.80
2019-05-23T13:51:13.570Z,25.60
2019-05-23T13:53:44.342Z,26.10
2019-05-23T13:56:14.735Z,25.20
2019-05-23T13:58:45.322Z,25.40
2019-05-23T14:01:15.707Z,25.10
2019-05-23T14:03:46.706Z,24.60
2019-05-23T14:06:17.725Z,24.00
2019-05-23T14:08:48.617Z,25.20
2019-05-23T14:11:19.458Z,26.50
2019-05-23T14:13:59.143Z,26.50
2019-05-23T14:16:22.266Z,27.10
2019-05-23T14:18:52.890Z,27.40
2019-05-23T14:21:23.226Z,27.20
2019-05-23T14:23:54.508Z,26.50
2019-05-23T14:26:26.870Z,26.00
2019-05-23T14:28:57.261Z,26.00
2019-05-23T14:31:29.511Z,25.50
2019-05-23T14:34:01.951Z,25.70
2019-05-23T14:36:37.451Z,24.70
2019-05-23T14:39:10.190Z,24.80
2019-05-23T14:41:58.451Z,23.90
2019-05-23T14:44:29.372Z,25.00
2019-05-23T14:47:01.420Z,24.00
2019-05-23T14:49:42.599Z,24.30
2019-05-23T14:52:30.768Z,24.50
2019-05-23T14:55:03.083Z,24.40
2019-05-23T14:57:33.467Z,25.50
2019-05-23T15:00:08.323Z,26.00
2019-05-23T15:02:38.915Z,25.10
2019-05-23T15:05:09.872Z,24.00
2019-05-23T15:07:40.271Z,24.00
2019-05-23T15:10:10.696Z,24.10
2019-05-23T15:12:45.839Z,25.00
2019-05-23T15:15:18.283Z,24.00
2019-05-23T15:17:48.687Z,24.50
2019-05-23T15:20:19.500Z,25.30
2019-05-23T15:22:49.954Z,25.50
2019-05-23T15:25:20.282Z,25.20
2019-05-23T15:27:50.619Z,25.90
2019-05-23T15:30:21.038Z,25.80
2019-05-23T15:32:51.715Z,25.50
2019-05-23T15:35:22.422Z,25.40
2019-05-23T15:37:53.319Z,25.50
2019-05-23T15:40:23.972Z,26.70
2019-05-23T15:42:54.729Z,26.90
2019-05-23T15:45:25.071Z,27.00
2019-05-23T15:47:55.468Z,25.40
2019-05-23T15:50:30.403Z,25.10
2019-05-23T15:53:08.791Z,25.70
2019-05-23T15:55:41.140Z,25.60
2019-05-23T15:58:22.382Z,25.40
2019-05-23T16:00:54.524Z,24.90
2019-05-23T16:03:44.613Z,25.40
2019-05-23T16:06:25.407Z,25.60
2019-05-23T16:08:55.860Z,26.90
2019-05-23T16:11:26.524Z,25.60
2019-05-23T16:13:57.031Z,25.90
2019-05-23T16:16:33.587Z,26.20
2019-05-23T16:19:04.250Z,26.70
2019-05-23T16:21:35.153Z,26.00
2019-05-23T16:24:06.648Z,26.00
2019-05-23T16:26:40.971Z,27.20
2019-05-23T16:29:12.837Z,26.60
2019-05-23T16:31:43.211Z,27.10
2019-05-23T16:34:13.628Z,26.90
2019-05-23T16:36:44.250Z,26.80
2019-05-23T16:39:15.153Z,27.70
2019-05-23T16:41:45.538Z,27.00
2019-05-23T16:44:16.122Z,27.50
2019-05-23T16:46:46.514Z,27.90
2019-05-23T16:49:17.211Z,26.80
2019-05-23T16:51:47.584Z,27.50
2019-05-23T16:54:19.582Z,27.20
2019-05-23T16:57:07.800Z,27.80
2019-05-23T16:59:45.539Z,28.00
2019-05-23T17:02:30.173Z,28.80
2019-05-23T17:05:10.326Z,28.30
2019-05-23T17:07:48.259Z,29.10
2019-05-23T17:10:22.667Z,28.70
2019-05-23T17:12:55.065Z,29.00
2019-05-23T17:15:29.567Z,29.20
2019-05-23T17:18:04.641Z,29.70
2019-05-23T17:20:42.372Z,30.00
2019-05-23T17:23:30.770Z,30.90
2019-05-23T17:26:09.218Z,32.20
2019-05-23T17:28:41.212Z,31.90
2019-05-23T17:31:19.138Z,30.70
2019-05-23T17:33:49.988Z,31.30
2019-05-23T17:36:20.748Z,30.50
2019-05-23T17:38:51.168Z,30.90
2019-05-23T17:41:21.692Z,31.60
2019-05-23T17:43:52.550Z,31.50
2019-05-23T17:46:23.359Z,32.40
2019-05-23T17:48:53.727Z,32.00
2019-05-23T17:51:24.270Z,32.00
2019-05-23T17:53:54.928Z,32.70
2019-05-23T17:56:25.298Z,32.50
2019-05-23T17:58:57.302Z,32.00
2019-05-23T18:01:28.313Z,31.30
2019-05-23T18:03:59.124Z,31.50
2019-05-23T18:06:29.928Z,31.50
2019-05-23T18:09:00.680Z,31.20
2019-05-23T18:11:31.633Z,31.90
2019-05-23T18:14:02.373Z,31.30
2019-05-23T18:16:33.073Z,31.90
2019-05-23T18:19:04.597Z,31.80
2019-05-23T18:21:34.959Z,31.30
2019-05-23T18:24:06.403Z,31.40
2019-05-23T18:26:37.237Z,31.40
2019-05-23T18:29:08.252Z,31.30
2019-05-23T18:31:40.272Z,31.30
2019-05-23T18:34:10.813Z,31.70
2019-05-23T18:36:41.378Z,32.50
2019-05-23T18:39:13.678Z,32.90
2019-05-23T18:41:44.256Z,31.60
2019-05-23T18:44:15.368Z,32.10
2019-05-23T18:46:47.402Z,32.80
2019-05-23T18:49:19.462Z,32.90
2019-05-23T18:51:50.870Z,33.70
2019-05-23T18:54:21.207Z,35.40
2019-05-23T18:56:51.845Z,36.30
2019-05-23T18:59:22.267Z,36.20
2019-05-23T19:01:53.122Z,36.40
2019-05-23T19:04:24.101Z,35.70
2019-05-23T19:06:54.782Z,35.50
2019-05-23T19:09:26.716Z,36.90
2019-05-23T19:11:58.060Z,35.90
2019-05-23T19:14:29.102Z,38.10
2019-05-23T19:16:59.755Z,38.50
2019-05-23T19:19:30.425Z,40.20
2019-05-23T19:22:00.785Z,41.10
2019-05-23T19:24:31.948Z,42.60
2019-05-23T19:27:04.239Z,43.10
2019-05-23T19:29:34.986Z,42.50
2019-05-23T19:32:06.007Z,43.30
2019-05-23T19:34:36.403Z,43.30
2019-05-23T19:37:08.402Z,44.00
2019-05-23T19:39:39.409Z,44.00
2019-05-23T19:42:09.877Z,44.50
2019-05-23T19:44:40.650Z,45.80
2019-05-23T19:47:11.504Z,46.00
2019-05-23T19:49:41.879Z,47.10
2019-05-23T19:52:12.295Z,46.60
2019-05-23T19:54:43.035Z,46.50
2019-05-23T19:57:13.919Z,46.60
2019-05-23T19:59:44.262Z,46.50
2019-05-23T20:02:34.998Z,46.50
2019-05-23T20:05:07.839Z,47.10
2019-05-23T20:07:38.175Z,47.30
2019-05-23T20:10:09.338Z,46.50
2019-05-23T20:12:39.704Z,47.60
2019-05-23T20:15:10.641Z,47.70
2019-05-23T20:17:41.668Z,47.90
2019-05-23T20:20:12.298Z,48.60
2019-05-23T20:22:42.676Z,49.40
2019-05-23T20:25:15.255Z,50.50
2019-05-23T20:27:45.854Z,50.80
2019-05-23T20:30:42.850Z,51.90
2019-05-23T20:33:13.609Z,52.00
2019-05-23T20:35:44.091Z,52.80
2019-05-23T20:38:14.927Z,58.50
2019-05-23T20:40:45.316Z,59.80
2019-05-23T20:43:15.848Z,59.90
2019-05-23T20:45:46.213Z,60.90
2019-05-23T20:48:16.900Z,61.30
2019-05-23T20:50:47.323Z,60.90
2019-05-23T20:53:17.708Z,62.60
2019-05-23T20:55:48.101Z,64.50
2019-05-23T20:58:18.602Z,64.70
2019-05-23T21:00:56.793Z,67.80
2019-05-23T21:03:28.038Z,68.00
2019-05-23T21:05:58.464Z,67.50
2019-05-23T21:08:28.973Z,71.50
2019-05-23T21:10:59.364Z,73.70
2019-05-23T21:13:29.706Z,73.60
2019-05-23T21:16:00.382Z,73.80
2019-05-23T21:18:30.792Z,73.50
2019-05-23T21:21:01.231Z,73.50
2019-05-23T21:23:31.572Z,72.90
2019-05-23T21:26:03.557Z,72.40
2019-05-23T21:28:34.313Z,72.40
2019-05-23T21:31:06.315Z,72.30
2019-05-23T21:33:37.339Z,72.70
2019-05-23T21:36:08.054Z,75.00
2019-05-23T21:38:38.482Z,75.70
2019-05-23T21:41:08.848Z,78.00
2019-05-23T21:43:39.189Z,79.50
2019-05-23T21:46:10.138Z,81.40
2019-05-23T21:48:40.561Z,82.20
2019-05-23T21:51:11.011Z,82.20
2019-05-23T21:53:41.433Z,82.20
2019-05-23T21:56:11.928Z,82.70
2019-05-23T21:58:42.324Z,84.70
2019-05-23T22:01:15.412Z,85.50
2019-05-23T22:03:53.453Z,85.70
2019-05-23T22:06:25.890Z,86.50
2019-05-23T22:08:57.547Z,87.60
2019-05-23T22:11:27.939Z,87.10
2019-05-23T22:13:58.841Z,87.60
2019-05-23T22:16:29.993Z,88.40
2019-05-23T22:19:00.782Z,87.80
2019-05-23T22:21:31.211Z,87.30
2019-05-23T22:24:02.561Z,87.60
2019-05-23T22:26:32.989Z,88.20
2019-05-23T22:29:04.031Z,88.70
2019-05-23T22:31:35.631Z,88.60
2019-05-23T22:34:08.150Z,88.50
2019-05-23T22:36:38.682Z,88.60
2019-05-23T22:39:09.297Z,88.40
2019-05-23T22:41:39.733Z,88.10
2019-05-23T22:44:10.237Z,89.20
2019-05-23T22:46:40.827Z,89.70
2019-05-23T22:49:11.507Z,89.90
2019-05-23T22:51:42.147Z,89.70
2019-05-23T22:54:12.570Z,89.60
2019-05-23T22:56:42.943Z,89.40
2019-05-23T22:59:13.654Z,89.20
2019-05-23T23:01:44.093Z,90.20
2019-05-23T23:04:15.493Z,90.40
2019-05-23T23:06:46.163Z,90.70
2019-05-23T23:09:16.547Z,90.70
2019-05-23T23:11:47.080Z,90.80
2019-05-23T23:14:17.861Z,90.90
2019-05-23T23:16:48.672Z,91.00
2019-05-23T23:19:19.537Z,91.20
2019-05-23T23:21:49.925Z,91.40
2019-05-23T23:24:20.622Z,91.50
2019-05-23T23:26:53.612Z,91.50
2019-05-23T23:29:24.376Z,91.60
2019-05-23T23:31:54.715Z,91.80
2019-05-23T23:34:25.157Z,92.00
2019-05-23T23:36:55.915Z,92.20
2019-05-23T23:39:26.335Z,92.40
2019-05-23T23:41:56.689Z,92.20
2019-05-23T23:44:35.302Z,92.00
2019-05-23T23:47:24.519Z,91.90
2019-05-23T23:50:13.233Z,91.90
2019-05-23T23:53:01.840Z,91.70
2019-05-23T23:55:50.474Z,91.70
2019-05-23T23:58:20.344Z,91.40
